• Join FlightAware (Why Join?)
  • Login
  • US Flag 
02:49AM EDT


 

Airport Tracker/Info


-or-


 

Live Flight TrackerFlight Track Log ✈ AAL1686 ✈ 30-Apr-2013 ✈ KLAX - KSTL

Flight Track Log - Related Links

Times and Time Zones

All times are in EDT time to prevent confusion due to time zone crossing. See the AAL1686 flight status page for this flight to view local times or setup timezone preferences in your user account.

Time Position Orientation Groundspeed Altitude Reporting Facility
EDT Latitude Longitude Course Direction KTS MPH feet Rate Location/Type
07:41PM 33.9333 -118.4500 55° Northeast 181 208 1,600  Level Southern California TRACON
07:42PM 33.9053 -118.5342 248° West 253 291 4,000 2,700 Climbing Los Angeles Center
07:43PM 34.1245 -118.0844 59° Northeast  Level FlightAware Approximate
07:43PM 33.8364 -118.5486 190° South 289 333 7,500  Level Los Angeles Center
07:44PM 34.1897 -117.9540 59° Northeast  Level FlightAware Approximate
07:44PM 33.8389 -118.4539 88° East 307 353 10,300  Level Los Angeles Center
07:45PM 34.2593 -117.8386 68° East  Level FlightAware Approximate
07:45PM 33.9172 -118.4319 13° North 304 350 12,000  Level Los Angeles Center
07:46PM 34.3238 -117.7125 55° Northeast  Level FlightAware Approximate
07:46PM 33.9850 -118.3442 47° Northeast 370 426 13,700  Level Los Angeles Center
07:47PM 34.0456 -118.2333 57° Northeast 391 450 16,200 2,340 Climbing Los Angeles Center
07:48PM 34.1086 -118.1236 55° Northeast 398 458 18,600 2,160 Climbing Los Angeles Center
07:49PM 34.1867 -117.9853 56° Northeast 412 474 20,700 1,980 Climbing Los Angeles Center
07:50PM 34.2536 -117.8664 56° Northeast 425 489 22,700 1,080 Climbing Los Angeles Center
07:51PM 34.3214 -117.7458 56° Northeast 432 497 23,000 720 Climbing Los Angeles Center
07:52PM 34.3917 -117.6172 56° Northeast 433 498 24,200 1,380 Climbing Los Angeles Center
07:53PM 34.4578 -117.4981 56° Northeast 431 496 25,900 1,860 Climbing Los Angeles Center
07:54PM 34.5300 -117.3850 52° Northeast 427 491 28,100 1,500 Climbing Los Angeles Center
07:55PM 34.6069 -117.2803 48° Northeast 420 483 29,000 420 Climbing Los Angeles Center
07:56PM 34.6869 -117.1686 49° Northeast 436 502 29,000  Level Los Angeles Center
07:57PM 34.7858 -117.0294 49° Northeast 452 520 29,000  Level Los Angeles Center
07:58PM 34.8661 -116.9150 49° Northeast 452 520 29,000 360 Level Los Angeles Center
07:59PM 34.9456 -116.8019 49° Northeast 447 514 29,800 960 Climbing Los Angeles Center
08:00PM 35.0264 -116.6858 50° Northeast 449 517 31,000 1,020 Climbing Los Angeles Center
08:01PM 35.1078 -116.5703 49° Northeast 450 518 32,000 960 Climbing Los Angeles Center
08:02PM 35.2072 -116.4325 49° Northeast 451 519 33,000 480 Climbing Los Angeles Center
08:03PM 35.2886 -116.3144 50° Northeast 455 524 33,000  Level Los Angeles Center
08:04PM 35.3703 -116.1972 49° Northeast 454 522 33,000  Level Los Angeles Center
08:05PM 35.4500 -116.0775 51° Northeast 455 524 33,000  Level Los Angeles Center
08:07PM 35.5347 -115.9603 48° Northeast 459 528 33,000  Level Los Angeles Center
08:08PM 35.6200 -115.8372 50° Northeast 453 521 33,000  Level Los Angeles Center
08:09PM 35.7189 -115.6925 50° Northeast 462 532 33,000  Level Los Angeles Center
08:10PM 35.8003 -115.5719 50° Northeast 460 529 33,000  Level Los Angeles Center
08:11PM 35.8808 -115.4539 50° Northeast 455 524 33,000  Level Los Angeles Center
08:12PM 35.9606 -115.3372 50° Northeast 450 518 33,000  Level Los Angeles Center
08:13PM 36.0392 -115.2206 50° Northeast 447 514 33,000  Level Los Angeles Center
08:14PM 36.1125 -115.0544 61° Northeast 466 536 33,000  Level Los Angeles Center
08:15PM 36.1581 -114.9042 69° East 467 537 33,000  Level Los Angeles Center
08:16PM 36.2036 -114.7550 69° East 467 537 33,000  Level Los Angeles Center
08:17PM 36.2506 -114.6050 69° East 468 539 33,000  Level Los Angeles Center
08:18PM 36.2950 -114.4544 70° East 468 539 33,000  Level Los Angeles Center
08:19PM 36.3506 -114.2697 69° East 477 549 33,000  Level Los Angeles Center
08:20PM 36.3983 -114.1169 69° East 477 549 33,000  Level Los Angeles Center
08:21PM 36.4433 -113.9631 70° East 476 548 33,000  Level Los Angeles Center
08:22PM 36.4894 -113.8075 70° East 479 551 33,000  Level Los Angeles Center
08:23PM 36.5344 -113.6528 70° East 478 550 33,000  Level Los Angeles Center
08:24PM 36.5806 -113.4994 69° East 476 548 33,000  Level Los Angeles Center
08:25PM 36.6350 -113.3128 70° East 479 551 33,000  Level Los Angeles Center
08:26PM 36.6806 -113.1556 70° East 483 556 33,000  Level Los Angeles Center
08:27PM 36.7256 -112.9994 70° East 482 555 33,000  Level Los Angeles Center
08:28PM 36.7703 -112.8428 70° East 482 555 33,000  Level Los Angeles Center
08:29PM 36.8156 -112.6856 70° East 485 558 33,000  Level Los Angeles Center
08:30PM 36.8694 -112.4972 70° East 484 557 33,000  Level Los Angeles Center
08:31PM 36.9133 -112.3381 71° East 487 560 33,000  Level Los Angeles Center
08:32PM 36.9583 -112.1800 70° East 488 562 33,000  Level Los Angeles Center
08:33PM 37.0019 -112.0208 71° East 487 560 33,000  Level Los Angeles Center
08:35PM 37.0544 -111.8322 71° East 484 557 33,000  Level Denver Center
08:36PM 37.0975 -111.6728 71° East 486 559 33,000  Level Denver Center
08:37PM 37.1406 -111.5144 71° East 484 557 33,000  Level Denver Center
08:38PM 37.1842 -111.3542 71° East 487 560 33,000  Level Denver Center
08:39PM 37.2269 -111.1961 71° East 481 554 33,000  Level Denver Center
08:40PM 37.2700 -111.0375 71° East 483 556 33,000  Level Denver Center
08:41PM 37.3206 -110.8467 72° East 483 556 33,000  Level Denver Center
08:42PM 37.3625 -110.6856 72° East 484 557 33,000  Level Denver Center
08:43PM 37.4047 -110.5242 72° East 487 560 33,000  Level Denver Center
08:44PM 37.4481 -110.3597 72° East 496 571 33,000  Level Denver Center
08:45PM 37.4919 -110.1878 72° East 487 560 33,000  Level Denver Center
08:46PM 37.5331 -110.0311 72° East 491 565 33,000  Level Denver Center
08:47PM 37.5789 -109.8489 72° East 490 564 33,000  Level Denver Center
08:48PM 37.6194 -109.6900 72° East 494 568 33,000  Level Denver Center
08:49PM 37.6589 -109.5347 72° East 487 560 33,000  Level Denver Center
08:50PM 37.7056 -109.3514 72° East 490 564 33,000  Level Denver Center
08:51PM 37.7447 -109.1922 73° East 493 567 33,000  Level Denver Center
08:52PM 37.7839 -109.0339 73° East 493 567 33,000  Level Denver Center
08:53PM 37.8189 -108.8469 77° East 490 564 33,000  Level Denver Center
08:54PM 37.8403 -108.6797 81° East 499 574 33,000  Level Denver Center
08:55PM 37.8639 -108.4897 81° East 492 566 33,000  Level Denver Center
08:56PM 37.8853 -108.3233 81° East 495 570 33,000  Level Denver Center
08:57PM 37.9056 -108.1586 81° East 496 571 33,000  Level Denver Center
08:58PM 37.9281 -107.9672 81° East 493 567 33,000  Level Denver Center
08:59PM 37.9478 -107.8000 81° East 497 572 33,000  Level Denver Center
09:00PM 37.9706 -107.6072 81° East 496 571 33,000  Level Denver Center
09:01PM 37.9889 -107.4422 82° East 495 570 33,000  Level Denver Center
09:02PM 38.0081 -107.2739 82° East 501 577 33,000  Level Denver Center
09:03PM 38.0308 -107.0731 82° East 500 575 33,000  Level Denver Center
09:04PM 38.0497 -106.9072 82° East 497 572 33,000  Level Denver Center
09:05PM 38.0669 -106.7411 82° East 498 573 33,000  Level Denver Center
09:06PM 38.0869 -106.5489 82° East 492 566 33,000  Level Denver Center
09:07PM 38.1036 -106.3978 82° East 494 568 33,000  Level Denver Center
09:08PM 38.1211 -106.2253 83° East 494 568 33,000  Level Denver Center
09:09PM 38.1439 -106.0219 82° East 496 571 33,000  Level Denver Center
09:10PM 38.1603 -105.8572 83° East 492 566 33,000  Level Denver Center
09:11PM 38.1781 -105.6619 83° East 498 573 33,000 -60 Level Denver Center
09:12PM 38.1956 -105.4967 82° East 495 570 32,900  Descending Denver Center
09:13PM 38.2117 -105.3303 83° East 494 568 33,000  Climbing Denver Center
09:14PM 38.2303 -105.1356 83° East 495 570 33,000  Level Denver Center
09:15PM 38.2456 -104.9681 83° East 497 572 33,000  Level Denver Center
09:17PM 38.2639 -104.7756 83° East 493 567 33,000  Level Denver Center
09:18PM 38.2786 -104.6092 84° East 493 567 33,000  Level Denver Center
09:19PM 38.2933 -104.4436 83° East 490 564 33,000  Level Denver Center
09:20PM 38.3186 -104.2486 81° East 499 574 33,000  Level Denver Center
09:21PM 38.3383 -104.0856 81° East 492 566 33,000 180 Level Denver Center
09:22PM 38.3622 -103.8981 81° East 480 552 33,400 660 Climbing Denver Center
09:23PM 38.3831 -103.7367 81° East 482 555 34,400 780 Climbing Denver Center
09:24PM 38.4025 -103.5767 81° East 478 550 35,000 240 Climbing Denver Center
09:25PM 38.4256 -103.3850 81° East 484 557 35,000  Level Denver Center
09:26PM 38.4467 -103.2242 80° East 482 555 35,000  Level Denver Center
09:27PM 38.4683 -103.0378 81° East 479 551 35,000  Level Denver Center
09:28PM 38.4864 -102.8767 82° East 479 551 35,000  Level Denver Center
09:29PM 38.5081 -102.6883 82° East 479 551 35,000  Level Denver Center
09:30PM 38.5261 -102.5269 82° East 480 552 35,000  Level Denver Center
09:31PM 38.5431 -102.3672 82° East 477 549 35,000  Level Denver Center
09:32PM 38.5631 -102.1789 82° East 478 550 35,000  Level Denver Center
09:33PM 38.5825 -102.0164 81° East 482 555 35,000  Level Denver Center
09:34PM 38.6031 -101.8261 82° East 482 555 35,000  Level Denver Center
09:35PM 38.6203 -101.6647 82° East 479 551 35,000  Level Denver Center
09:36PM 38.6372 -101.5028 82° East 478 550 35,000  Level Denver Center
09:37PM 38.6572 -101.3131 82° East 481 554 35,000  Level Denver Center
09:38PM 38.6747 -101.1500 82° East 482 555 35,000  Level Denver Center
09:39PM 38.6919 -100.9594 83° East 483 556 35,000  Level Denver Center
09:40PM 38.7092 -100.7978 82° East 477 549 35,000  Level Denver Center
09:41PM 38.7275 -100.6081 83° East 480 552 35,000  Level Denver Center
09:42PM 38.7436 -100.4461 83° East 479 551 35,000  Level Denver Center
09:43PM 38.7578 -100.2861 83° East 474 545 35,000  Level Denver Center
09:44PM 38.7761 -100.1025 83° East 468 539 35,000  Level Denver Center
09:45PM 38.7894 -99.9436 84° East 466 536 35,000  Level Denver Center
09:46PM 38.8064 -99.7575 83° East 470 541 35,000  Level Denver Center
09:47PM 38.8200 -99.5992 84° East 467 537 35,000  Level Denver Center
09:48PM 38.8344 -99.4414 83° East 467 537 35,000  Level Denver Center
09:49PM 38.8492 -99.2564 84° East 466 536 35,000  Level Denver Center
09:50PM 38.8606 -99.0986 85° East 466 536 35,000  Level Denver Center
09:51PM 38.8736 -98.9144 85° East 464 534 35,000  Level Denver Center
09:52PM 38.8839 -98.7561 85° East 466 536 35,000  Level Denver Center
09:54PM 38.8967 -98.5494 85° East 468 539 35,000  Level Kansas City Center
09:55PM 38.9075 -98.3850 85° East 461 531 35,000  Level Kansas City Center
09:56PM 38.9181 -98.2181 85° East 467 537 35,000  Level Kansas City Center
09:57PM 38.9283 -98.0489 85° East 462 532 35,000  Level Kansas City Center
09:58PM 38.9369 -97.8881 86° East 462 532 35,000  Level Kansas City Center
09:59PM 38.9483 -97.6972 86° East 461 531 35,000  Level Kansas City Center
10:00PM 38.9581 -97.5400 85° East 461 531 35,000  Level Kansas City Center
10:01PM 38.9669 -97.3608 86° East 462 532 35,000  Level Kansas City Center
10:02PM 38.9764 -97.1989 86° East 456 525 35,000  Level Kansas City Center
10:03PM 38.9836 -97.0367 87° East 454 522 35,000  Level Kansas City Center
10:04PM 38.9925 -96.8661 86° East 454 522 35,000  Level Kansas City Center
10:05PM 39.0008 -96.7106 86° East 455 524 35,000  Level Kansas City Center
10:06PM 39.0086 -96.5297 87° East 455 524 35,000  Level Kansas City Center
10:07PM 39.0153 -96.3744 87° East 455 524 35,000  Level Kansas City Center
10:08PM 39.0217 -96.2214 87° East 449 517 35,000  Level Kansas City Center
10:09PM 39.0294 -96.0425 87° East 449 517 35,000  Level Kansas City Center
10:10PM 39.0356 -95.8894 87° East 449 517 35,000  Level Kansas City Center
10:12PM 39.0497 -95.5558 87° East 451 519 35,000  Level Kansas City Center
10:13PM 39.0564 -95.3872 87° East 449 517 35,000  Level Kansas City Center
10:14PM 39.0631 -95.2128 87° East 455 524 35,000  Level Kansas City Center
10:15PM 39.0667 -95.0761 88° East 446 513 35,000  Level Kansas City Center
10:17PM 39.0715 -94.8717 88° East  Level FlightAware Approximate
10:18PM 39.0844 -94.5675 110° East 447 514 35,000  Level Kansas City Center
10:19PM 39.0878 -94.4136 88° East 450 518 35,000  Level Kansas City Center
10:20PM 39.0925 -94.2372 88° East 444 511 35,000  Level Kansas City Center
10:21PM 39.0819 -94.0892 95° East 440 506 35,000  Level Kansas City Center
10:22PM 39.0389 -93.9486 111° Southeast 443 510 35,000  Level Kansas City Center
10:23PM 38.9867 -93.7858 112° Southeast 439 505 35,000  Level Kansas City Center
10:24PM 38.9891 -93.7930 110° East  Level FlightAware Approximate
10:24PM 38.9428 -93.6467 112° Southeast 443 510 35,000  Level Kansas City Center
10:25PM 38.8958 -93.5008 112° Southeast 441 507 34,600 -720 Descending Kansas City Center
10:26PM 38.8494 -93.3542 112° Southeast 441 507 33,600 -1,020 Descending Kansas City Center
10:27PM 38.8014 -93.2075 113° Southeast 444 511 32,600 -1,020 Descending Kansas City Center
10:29PM 38.7603 -93.0606 110° East 439 505 31,600 -1,140 Descending Kansas City Center
10:30PM 38.7700 -92.8689 86° East 442 509 30,400 -1,080 Descending Kansas City Center
10:31PM 38.7706 -92.7103 90° East 442 509 29,500 -660 Descending Kansas City Center
10:32PM 38.7703 -92.5536 90° East 440 506 29,100 -300 Descending Kansas City Center
10:33PM 38.7708 -92.3942 90° East 441 507 29,000  Descending Kansas City Center
10:34PM 38.7694 -92.2314 91° East 447 514 29,100  Climbing Kansas City Center
10:35PM 38.7700 -92.0733 90° East 444 511 29,000 -1,080 Descending Kansas City Center
10:36PM 38.7675 -91.9167 91° East 440 506 27,000 -2,460 Descending Kansas City Center
10:37PM 38.7672 -91.7628 90° East 433 498 24,100 -3,000 Descending Kansas City Center
10:38PM 38.7653 -91.6047 91° East 426 490 21,000 -2,880 Descending Kansas City Center
10:39PM 38.7631 -91.4586 91° East 416 479 18,300 -2,580 Descending Kansas City Center
10:40PM 38.7625 -91.3167 90° East 404 465 15,800 -2,460 Descending Kansas City Center
10:41PM 38.7611 -91.1808 91° East 388 447 13,300 -2,460 Descending Kansas City Center
10:42PM 38.7597 -91.0500 91° East 374 430 10,800 -1,740 Descending Kansas City Center
10:43PM 38.7803 -90.9344 77° East 329 379 9,800 -1,320 Descending Kansas City Center
10:44PM 38.8006 -90.8372 75° East 291 335 8,100 -1,980 Descending Kansas City Center
10:45PM 38.8161 -90.7444 78° East 271 312 5,800 -2,040 Descending Kansas City Center
10:46PM 38.8286 -90.6525 80° East 264 304 4,000 -1,080 Descending Kansas City Center
10:47PM 38.8181 -90.5675 99° East 250 288 3,700 -300 Descending Kansas City Center